Time;durP1;ratioP1;P1;durP2;ratioP2;P2;SDS_P1;SDS_P2;PMS_P1;PMS_P2;Temp;Humidity;BMP_temperature;BMP_pressure;BME280_temperature;BME280_humidity;BME280_pressure;Samples;Min_cycle;Max_cycle;Signal;HPM_P1;HPM_P2
2020/12/31 00:00:58;;;;;;;3.90;3.50;;;7.70;70.10;;;;;;4987645;28;20033;-77
2020/12/31 00:03:23;;;;;;;3.67;3.22;;;7.80;70.10;;;;;;4998070;28;20088;-76
2020/12/31 00:05:49;;;;;;;3.47;3.17;;;7.70;70.10;;;;;;4992626;28;20170;-76
2020/12/31 00:08:14;;;;;;;4.50;3.58;;;7.60;70.10;;;;;;4987763;28;20117;-77
2020/12/31 00:10:40;;;;;;;4.13;3.72;;;7.60;70.10;;;;;;4988093;28;20030;-77
2020/12/31 00:13:05;;;;;;;4.95;4.10;;;7.50;70.10;;;;;;4986606;28;20023;-77
2020/12/31 00:15:31;;;;;;;4.93;3.72;;;7.50;70.20;;;;;;4992438;28;20030;-77
2020/12/31 00:17:56;;;;;;;4.03;3.63;;;7.50;70.30;;;;;;4988010;28;20505;-76
2020/12/31 00:20:22;;;;;;;5.00;3.92;;;7.40;70.30;;;;;;4988879;28;20125;-76
2020/12/31 00:22:47;;;;;;;4.30;3.90;;;7.40;70.30;;;;;;4986678;28;20487;-77
2020/12/31 00:25:13;;;;;;;4.93;4.20;;;7.30;70.30;;;;;;4986692;28;20038;-75
2020/12/31 00:27:38;;;;;;;4.72;4.13;;;7.30;70.40;;;;;;4987232;28;20026;-77
2020/12/31 00:30:09;;;;;;;4.55;4.05;;;7.30;70.40;;;;;;4986602;28;20026;-77
2020/12/31 00:32:35;;;;;;;5.30;4.55;;;7.20;70.40;;;;;;4986819;28;20053;-77
2020/12/31 00:35:01;;;;;;;4.63;4.07;;;7.10;70.40;;;;;;4988714;28;20399;-76
2020/12/31 00:37:33;;;;;;;5.72;5.00;;;7.10;70.30;;;;;;4989852;28;20046;-77
2020/12/31 00:39:58;;;;;;;6.72;5.55;;;7.10;70.30;;;;;;4987073;28;20042;-78
2020/12/31 00:42:24;;;;;;;6.15;5.18;;;7.10;70.30;;;;;;4989183;28;20026;-77
2020/12/31 00:44:49;;;;;;;6.10;5.20;;;7.00;70.30;;;;;;4993495;28;20034;-77
2020/12/31 00:47:15;;;;;;;5.10;4.60;;;7.00;70.40;;;;;;4988171;28;20034;-77
2020/12/31 00:49:40;;;;;;;6.00;4.97;;;6.90;70.50;;;;;;4986914;28;20041;-76
2020/12/31 00:52:06;;;;;;;7.00;6.03;;;6.90;70.60;;;;;;4988599;28;20782;-76
2020/12/31 00:54:31;;;;;;;5.68;5.07;;;6.90;70.60;;;;;;4987943;28;20026;-78
2020/12/31 00:56:57;;;;;;;5.68;4.80;;;6.90;70.60;;;;;;4994890;28;20045;-77
2020/12/31 00:59:22;;;;;;;6.20;5.55;;;6.90;70.60;;;;;;4987359;28;20030;-77
2020/12/31 01:01:47;;;;;;;6.80;5.55;;;6.80;71.20;;;;;;4987353;28;20526;-78
2020/12/31 01:04:13;;;;;;;6.18;5.25;;;6.80;70.70;;;;;;4987130;28;20059;-77
2020/12/31 01:06:39;;;;;;;7.35;5.45;;;6.80;70.80;;;;;;4989971;28;20038;-77
2020/12/31 01:09:08;;;;;;;5.43;4.47;;;6.80;70.80;;;;;;4987414;28;20121;-77
2020/12/31 01:11:35;;;;;;;7.65;5.47;;;6.80;70.80;;;;;;4987950;28;20519;-77
2020/12/31 01:14:01;;;;;;;6.68;4.75;;;6.80;70.80;;;;;;4987596;28;20041;-77
2020/12/31 01:16:27;;;;;;;6.25;5.38;;;6.80;70.80;;;;;;4989715;28;20034;-77
2020/12/31 01:18:52;;;;;;;6.10;5.40;;;6.70;70.90;;;;;;4987581;28;20384;-76
2020/12/31 01:21:18;;;;;;;7.05;6.07;;;6.70;70.90;;;;;;4987536;28;20035;-77
2020/12/31 01:23:43;;;;;;;6.20;5.22;;;6.70;70.80;;;;;;4987352;28;20581;-77
2020/12/31 01:26:11;;;;;;;6.20;5.40;;;6.70;70.80;;;;;;4986874;28;20030;-77
2020/12/31 01:28:37;;;;;;;6.78;5.72;;;6.70;70.90;;;;;;4988078;28;20038;-77
2020/12/31 01:31:08;;;;;;;6.20;5.45;;;6.70;71.00;;;;;;4993831;28;20042;-77
2020/12/31 01:33:35;;;;;;;7.15;5.55;;;6.70;71.00;;;;;;4987302;28;20373;-77
2020/12/31 01:36:07;;;;;;;7.13;5.00;;;6.70;71.00;;;;;;4980356;28;20040;-77
2020/12/31 01:38:32;;;;;;;8.25;5.85;;;6.70;71.00;;;;;;4988700;28;20053;-77
2020/12/31 01:40:57;;;;;;;7.25;5.95;;;6.70;71.00;;;;;;4986858;28;20500;-77
2020/12/31 01:43:23;;;;;;;5.40;4.32;;;6.70;71.10;;;;;;5032145;23;20057;-75
2020/12/31 01:45:48;;;;;;;7.63;5.85;;;6.60;71.00;;;;;;5024931;28;20494;-75
2020/12/31 01:48:14;;;;;;;6.72;5.72;;;6.60;71.00;;;;;;5025634;28;20030;-75
2020/12/31 01:50:40;;;;;;;7.47;5.97;;;6.70;71.10;;;;;;5019382;28;20038;-75
2020/12/31 01:53:06;;;;;;;7.28;5.32;;;6.60;71.00;;;;;;5026370;28;20449;-75
2020/12/31 01:55:32;;;;;;;6.32;5.00;;;6.60;71.00;;;;;;5024464;28;20030;-75
2020/12/31 01:57:58;;;;;;;7.28;6.00;;;6.60;71.00;;;;;;5023957;28;20482;-75
2020/12/31 02:00:23;;;;;;;7.32;5.80;;;6.60;70.90;;;;;;5019194;28;20026;-74
2020/12/31 02:02:49;;;;;;;7.63;5.60;;;6.60;70.90;;;;;;5023245;28;20029;-74
2020/12/31 02:05:14;;;;;;;8.00;6.03;;;6.50;70.90;;;;;;5021530;28;20151;-74
2020/12/31 02:07:41;;;;;;;7.20;5.43;;;6.50;70.90;;;;;;5024645;28;20029;-74
2020/12/31 02:10:06;;;;;;;9.10;5.80;;;6.50;71.00;;;;;;5026616;28;20042;-75
2020/12/31 02:12:33;;;;;;;6.88;5.65;;;6.50;71.10;;;;;;5022170;28;20112;-74
2020/12/31 02:14:58;;;;;;;7.72;5.85;;;6.60;71.20;;;;;;5021994;28;20494;-74
2020/12/31 02:17:24;;;;;;;6.80;5.60;;;6.60;71.30;;;;;;5021682;28;20052;-74
2020/12/31 02:19:49;;;;;;;7.70;6.20;;;6.60;71.30;;;;;;5023828;28;20026;-75
2020/12/31 02:22:15;;;;;;;6.18;5.22;;;6.60;71.40;;;;;;5019303;28;20038;-75
2020/12/31 02:24:41;;;;;;;6.75;5.65;;;6.60;71.40;;;;;;5021649;28;20517;-74
2020/12/31 02:27:07;;;;;;;6.82;4.88;;;6.60;71.50;;;;;;5021224;28;20054;-75
2020/12/31 02:29:32;;;;;;;6.45;5.05;;;6.60;71.50;;;;;;5021319;28;20053;-74
2020/12/31 02:31:58;;;;;;;7.13;5.32;;;6.70;71.50;;;;;;5022752;28;20442;-74
2020/12/31 02:34:24;;;;;;;7.65;6.03;;;6.70;71.50;;;;;;5018556;28;20636;-75
2020/12/31 02:36:51;;;;;;;6.20;5.18;;;6.60;71.30;;;;;;5022385;28;20087;-75
2020/12/31 02:39:17;;;;;;;6.38;5.30;;;6.60;71.30;;;;;;5020783;28;20550;-75
2020/12/31 02:41:44;;;;;;;6.93;5.43;;;6.70;71.30;;;;;;5023137;28;20112;-76
2020/12/31 02:44:09;;;;;;;6.30;5.20;;;6.60;71.30;;;;;;5020824;28;20073;-74
2020/12/31 02:46:35;;;;;;;6.43;5.15;;;6.70;71.30;;;;;;5020791;28;20069;-74
2020/12/31 02:49:01;;;;;;;7.15;5.30;;;6.70;71.30;;;;;;5022195;28;20037;-74
2020/12/31 02:51:27;;;;;;;6.20;5.32;;;6.70;71.30;;;;;;5019416;28;20407;-74
2020/12/31 02:53:52;;;;;;;8.07;5.13;;;6.70;71.30;;;;;;5022155;28;20056;-75
2020/12/31 02:56:20;;;;;;;6.28;5.40;;;6.70;71.30;;;;;;5020241;28;20071;-75
2020/12/31 02:58:46;;;;;;;6.10;5.18;;;6.70;71.30;;;;;;5021768;28;21516;-75
2020/12/31 03:01:12;;;;;;;6.45;4.88;;;6.70;71.30;;;;;;5023457;28;20041;-74
2020/12/31 03:03:38;;;;;;;5.53;4.55;;;6.70;71.30;;;;;;5023066;28;20026;-74
2020/12/31 03:06:04;;;;;;;5.63;5.03;;;6.70;71.30;;;;;;5022438;28;20041;-74
2020/12/31 03:08:30;;;;;;;6.38;4.97;;;6.70;71.30;;;;;;5025034;28;20029;-74
2020/12/31 03:10:56;;;;;;;6.93;5.22;;;6.70;71.30;;;;;;5026907;28;20501;-75
2020/12/31 03:13:23;;;;;;;6.50;4.88;;;6.70;71.30;;;;;;5025847;28;20029;-76
2020/12/31 03:15:56;;;;;;;6.55;4.88;;;6.70;71.40;;;;;;5019395;28;20142;-74
2020/12/31 03:18:22;;;;;;;4.70;4.03;;;6.70;71.50;;;;;;5018819;28;20486;-75
2020/12/31 03:20:49;;;;;;;5.35;4.40;;;6.70;71.50;;;;;;5021994;28;20041;-74
2020/12/31 03:23:14;;;;;;;5.80;4.40;;;6.80;71.50;;;;;;5021437;28;20036;-74
2020/12/31 03:25:41;;;;;;;4.82;4.30;;;6.80;71.60;;;;;;5027409;28;20100;-74
2020/12/31 03:28:08;;;;;;;5.88;4.60;;;6.80;71.60;;;;;;5027242;28;20394;-76
2020/12/31 03:30:35;;;;;;;6.22;4.60;;;6.80;71.60;;;;;;5022349;28;20541;-75
2020/12/31 03:33:01;;;;;;;5.32;4.45;;;6.80;71.70;;;;;;5026415;28;20025;-74
2020/12/31 03:35:27;;;;;;;5.40;4.45;;;6.90;71.70;;;;;;5021283;28;20064;-75
2020/12/31 03:37:53;;;;;;;5.93;4.72;;;6.90;71.70;;;;;;5026888;28;20029;-74
2020/12/31 03:40:19;;;;;;;6.00;4.88;;;6.90;71.70;;;;;;5018790;28;20060;-75
2020/12/31 03:42:45;;;;;;;6.03;5.07;;;6.90;71.60;;;;;;5024451;28;20034;-75
2020/12/31 03:45:11;;;;;;;4.97;4.38;;;7.00;71.60;;;;;;5024926;28;20026;-75
2020/12/31 03:47:36;;;;;;;5.75;5.10;;;7.00;71.60;;;;;;5024341;28;20017;-75
2020/12/31 03:50:04;;;;;;;5.82;4.63;;;7.00;71.50;;;;;;5016758;28;20025;-74
2020/12/31 03:52:29;;;;;;;6.63;4.43;;;7.00;71.50;;;;;;5022433;28;20389;-75
2020/12/31 03:54:55;;;;;;;6.95;5.68;;;6.90;71.40;;;;;;5027132;28;20021;-75
2020/12/31 03:57:20;;;;;;;4.80;4.30;;;7.00;71.50;;;;;;5025353;28;20040;-75
2020/12/31 03:59:46;;;;;;;5.28;4.63;;;7.00;71.50;;;;;;5018446;28;20033;-74
2020/12/31 04:02:11;;;;;;;7.47;4.97;;;7.00;71.50;;;;;;5025062;28;20112;-75
2020/12/31 04:04:37;;;;;;;6.93;5.45;;;7.00;72.00;;;;;;5024683;28;20429;-75
2020/12/31 04:07:02;;;;;;;9.27;5.90;;;7.10;71.60;;;;;;5020568;28;20057;-76
2020/12/31 04:09:28;;;;;;;5.85;4.68;;;7.00;71.60;;;;;;5027127;28;20494;-75
2020/12/31 04:11:53;;;;;;;5.32;4.50;;;7.10;71.70;;;;;;5026059;28;20068;-75
2020/12/31 04:14:19;;;;;;;5.13;4.43;;;7.10;72.20;;;;;;5019846;28;20038;-75
2020/12/31 04:16:44;;;;;;;4.95;3.85;;;7.10;71.70;;;;;;5025152;28;20040;-75
2020/12/31 04:19:10;;;;;;;6.53;4.13;;;7.10;71.70;;;;;;5025562;28;20094;-75
2020/12/31 04:21:35;;;;;;;7.05;4.75;;;7.20;71.80;;;;;;5020490;28;20124;-75
2020/12/31 04:24:00;;;;;;;5.45;4.80;;;7.20;71.80;;;;;;5025663;28;20121;-75
2020/12/31 04:26:26;;;;;;;6.20;4.40;;;7.20;71.70;;;;;;5024610;28;20047;-75
2020/12/31 04:28:51;;;;;;;7.32;4.20;;;7.20;71.80;;;;;;5016678;28;20057;-75
2020/12/31 04:31:17;;;;;;;6.07;5.03;;;7.30;71.80;;;;;;5026610;28;20029;-75
2020/12/31 04:33:42;;;;;;;6.82;4.53;;;7.30;72.30;;;;;;5026300;28;20033;-75
2020/12/31 04:36:08;;;;;;;5.05;4.10;;;7.30;71.70;;;;;;5021099;28;20082;-75
2020/12/31 04:38:33;;;;;;;6.65;4.63;;;7.30;71.70;;;;;;5026640;28;20398;-75
2020/12/31 04:41:03;;;;;;;6.10;4.57;;;7.30;71.60;;;;;;5025031;28;20057;-75
2020/12/31 04:43:29;;;;;;;5.57;4.85;;;7.40;71.60;;;;;;5022155;28;20630;-75
2020/12/31 04:45:55;;;;;;;5.63;4.70;;;7.40;71.60;;;;;;5024477;28;20033;-75
2020/12/31 04:48:39;;;;;;;5.05;4.00;;;7.40;71.60;;;;;;5024087;28;20037;-75
2020/12/31 04:51:12;;;;;;;5.25;4.10;;;7.40;71.50;;;;;;5014934;28;20045;-75
2020/12/31 04:53:38;;;;;;;5.78;4.22;;;7.40;71.40;;;;;;5024375;28;20030;-76
2020/12/31 04:56:05;;;;;;;5.75;3.92;;;7.50;71.50;;;;;;5025939;28;20029;-75
2020/12/31 04:58:31;;;;;;;5.15;4.15;;;7.40;71.50;;;;;;5026017;28;20540;-75
2020/12/31 05:00:57;;;;;;;6.72;4.40;;;7.50;71.60;;;;;;5024223;28;20503;-75
2020/12/31 05:03:22;;;;;;;5.32;4.00;;;7.40;71.50;;;;;;5024195;28;20061;-75
2020/12/31 05:05:53;;;;;;;6.43;4.22;;;7.40;71.50;;;;;;5019848;28;20048;-75
2020/12/31 05:08:29;;;;;;;4.97;3.95;;;7.50;71.50;;;;;;5024860;28;20677;-75
2020/12/31 05:10:56;;;;;;;4.53;3.80;;;7.50;71.50;;;;;;5017771;28;20030;-75
2020/12/31 05:13:21;;;;;;;5.05;4.18;;;7.60;71.50;;;;;;5024039;28;20044;-75
2020/12/31 05:15:47;;;;;;;4.38;3.88;;;7.50;71.50;;;;;;5021631;28;20029;-75
2020/12/31 05:18:27;;;;;;;4.70;3.95;;;7.50;71.50;;;;;;5024173;28;20029;-75
2020/12/31 05:20:57;;;;;;;5.25;3.80;;;7.50;71.40;;;;;;5014759;28;20112;-75
2020/12/31 05:23:24;;;;;;;6.77;3.77;;;7.60;71.50;;;;;;5024887;28;20041;-75
2020/12/31 05:25:50;;;;;;;4.00;3.60;;;7.60;71.40;;;;;;5024397;28;20037;-75
2020/12/31 05:28:30;;;;;;;5.00;4.07;;;7.60;71.50;;;;;;5024661;28;20116;-76
2020/12/31 05:31:01;;;;;;;5.45;4.30;;;7.60;71.40;;;;;;5019379;28;20046;-75
2020/12/31 05:33:32;;;;;;;5.60;4.43;;;7.60;71.50;;;;;;5023894;28;20402;-75
2020/12/31 05:36:26;;;;;;;5.30;4.25;;;7.60;71.50;;;;;;5019411;28;20034;-75
2020/12/31 05:38:57;;;;;;;5.55;4.10;;;7.60;71.50;;;;;;5016443;28;20025;-75
2020/12/31 05:41:24;;;;;;;5.70;4.50;;;7.60;71.60;;;;;;5022654;28;20041;-75
2020/12/31 05:43:58;;;;;;;4.53;4.13;;;7.60;71.60;;;;;;5024096;28;20710;-76
2020/12/31 05:46:25;;;;;;;3.83;3.42;;;7.60;71.60;;;;;;5021218;28;20033;-75
2020/12/31 05:49:05;;;;;;;4.25;3.85;;;7.70;71.70;;;;;;5016007;28;20037;-76
2020/12/31 05:51:41;;;;;;;5.63;4.40;;;7.70;71.60;;;;;;5019784;28;20037;-75
2020/12/31 05:54:14;;;;;;;5.75;4.13;;;7.70;71.60;;;;;;5023963;28;20045;-75
2020/12/31 05:56:42;;;;;;;4.78;4.20;;;7.70;71.50;;;;;;5023618;28;20029;-75
2020/12/31 05:59:26;;;;;;;4.68;4.03;;;7.70;71.50;;;;;;5024252;28;20041;-75
2020/12/31 06:02:00;;;;;;;4.45;3.55;;;7.70;71.50;;;;;;5017746;28;20060;-76
2020/12/31 06:04:31;;;;;;;4.80;4.03;;;7.70;71.40;;;;;;5028317;28;20034;-75
2020/12/31 06:06:58;;;;;;;4.70;4.22;;;7.80;71.50;;;;;;5023529;28;20041;-75
2020/12/31 06:09:31;;;;;;;4.45;3.92;;;7.70;71.50;;;;;;5028031;28;20030;-75
2020/12/31 06:12:08;;;;;;;5.70;4.25;;;7.70;71.40;;;;;;5027601;28;20030;-75
2020/12/31 06:14:38;;;;;;;5.55;3.88;;;7.80;71.40;;;;;;5021106;28;20474;-75
2020/12/31 06:17:05;;;;;;;4.75;4.25;;;7.70;71.40;;;;;;5028013;28;20041;-75
2020/12/31 06:19:32;;;;;;;4.80;4.05;;;7.70;71.40;;;;;;5026824;28;20388;-75
2020/12/31 06:22:22;;;;;;;4.57;4.10;;;7.70;71.40;;;;;;5022857;28;20065;-75
2020/12/31 06:24:57;;;;;;;6.25;4.80;;;7.80;71.30;;;;;;5017599;28;20033;-75
2020/12/31 06:27:38;;;;;;;4.13;3.72;;;7.70;71.30;;;;;;5027642;28;20021;-76
2020/12/31 06:30:04;;;;;;;;;;;7.80;71.30;;;;;;5019318;28;20033;-75
2020/12/31 06:32:39;;;;;;;4.55;3.78;;;7.80;71.20;;;;;;5027495;28;19915;-75
2020/12/31 06:35:10;;;;;;;5.07;4.32;;;7.80;71.10;;;;;;5025905;28;20120;-75
2020/12/31 06:37:37;;;;;;;5.40;3.90;;;7.80;71.20;;;;;;5025926;28;20110;-75
2020/12/31 06:40:28;;;;;;;5.15;4.32;;;7.70;71.20;;;;;;5026536;28;20034;-75
2020/12/31 06:43:13;;;;;;;3.33;2.92;;;7.70;71.20;;;;;;5019016;28;20037;-75
2020/12/31 06:45:47;;;;;;;4.32;3.42;;;7.70;71.20;;;;;;5026248;28;20034;-75
2020/12/31 06:48:25;;;;;;;4.47;3.83;;;7.70;71.30;;;;;;5025833;28;20498;-76
2020/12/31 06:51:11;;;;;;;4.65;4.03;;;7.70;71.40;;;;;;5024388;28;20040;-76
2020/12/31 06:53:44;;;;;;;4.70;4.25;;;7.70;71.30;;;;;;5027108;28;20106;-75
2020/12/31 06:56:10;;;;;;;4.70;4.07;;;7.80;71.40;;;;;;5027218;28;20162;-75
2020/12/31 06:58:37;;;;;;;5.18;4.65;;;7.70;71.40;;;;;;5024885;28;20033;-75
2020/12/31 07:01:26;;;;;;;4.82;4.32;;;7.80;71.50;;;;;;5026967;28;20074;-76
2020/12/31 07:03:55;;;;;;;6.25;4.90;;;7.80;71.40;;;;;;5018767;28;20033;-75
2020/12/31 07:06:21;;;;;;;5.43;4.93;;;7.80;71.50;;;;;;5022458;28;20091;-75
2020/12/31 07:08:51;;;;;;;4.85;4.45;;;7.70;71.40;;;;;;5026326;28;20523;-75
2020/12/31 07:11:36;;;;;;;5.85;5.25;;;7.80;71.50;;;;;;5026044;28;20394;-75
2020/12/31 07:14:23;;;;;;;5.75;4.50;;;7.80;71.50;;;;;;5018123;28;20022;-75
2020/12/31 07:16:59;;;;;;;6.63;4.68;;;7.80;71.50;;;;;;5025531;28;20030;-75
2020/12/31 07:19:37;;;;;;;6.38;5.20;;;7.80;71.50;;;;;;5026659;28;20029;-75
2020/12/31 07:22:22;;;;;;;6.78;5.05;;;7.80;71.50;;;;;;5022714;28;20060;-76
2020/12/31 07:24:52;;;;;;;5.60;5.00;;;7.80;71.40;;;;;;5025699;28;20034;-75
2020/12/31 07:27:45;;;;;;;6.50;5.63;;;7.80;71.40;;;;;;5025913;28;20029;-75
2020/12/31 07:30:17;;;;;;;5.97;5.25;;;7.80;71.30;;;;;;5013039;28;20527;-76
2020/12/31 07:32:54;;;;;;;4.97;4.35;;;7.80;71.30;;;;;;5026621;28;20104;-76
2020/12/31 07:35:19;;;;;;;6.10;5.28;;;7.80;71.30;;;;;;5021391;28;20034;-75
2020/12/31 07:37:49;;;;;;;5.90;5.30;;;7.80;71.30;;;;;;5026363;28;20072;-75
2020/12/31 07:40:31;;;;;;;6.30;5.32;;;7.80;71.30;;;;;;5026764;28;20038;-75
2020/12/31 07:42:57;;;;;;;5.85;5.25;;;7.80;71.20;;;;;;5024410;23;20109;-76
2020/12/31 07:45:24;;;;;;;5.82;5.25;;;7.70;71.20;;;;;;5009230;28;20124;-76
2020/12/31 07:47:51;;;;;;;5.43;4.72;;;7.80;71.30;;;;;;5018509;28;20026;-77
2020/12/31 07:50:17;;;;;;;6.05;5.45;;;7.80;71.30;;;;;;5017446;28;20109;-77
2020/12/31 07:52:43;;;;;;;6.20;4.65;;;7.70;71.20;;;;;;5004297;28;20026;-77
2020/12/31 07:55:09;;;;;;;5.15;4.57;;;7.80;71.30;;;;;;4999299;28;20084;-76
2020/12/31 07:57:38;;;;;;;5.32;4.82;;;7.70;71.30;;;;;;5005285;28;20105;-75
2020/12/31 08:00:04;;;;;;;5.43;4.70;;;7.70;71.30;;;;;;4986211;28;20493;-77
2020/12/31 08:02:31;;;;;;;4.60;4.07;;;7.90;71.50;;;;;;5003030;28;20030;-74
2020/12/31 08:04:56;;;;;;;4.28;3.65;;;7.70;71.40;;;;;;4997850;28;20022;-77
2020/12/31 08:07:23;;;;;;;4.55;4.10;;;7.70;71.40;;;;;;4996874;28;20033;-77
2020/12/31 08:09:49;;;;;;;4.55;3.97;;;7.80;71.50;;;;;;5005280;28;20099;-75
2020/12/31 08:12:15;;;;;;;4.43;4.03;;;7.70;71.40;;;;;;5006848;28;20549;-74
2020/12/31 08:14:42;;;;;;;4.45;4.05;;;7.80;71.50;;;;;;5001929;28;20125;-77
2020/12/31 08:17:08;;;;;;;4.18;3.53;;;7.70;71.40;;;;;;5007946;28;20034;-78
2020/12/31 08:19:35;;;;;;;3.67;3.28;;;7.70;71.40;;;;;;5007545;28;20030;-76
2020/12/31 08:22:10;;;;;;;4.00;3.60;;;7.70;71.40;;;;;;4998681;28;20042;-76
2020/12/31 08:24:44;;;;;;;4.45;3.80;;;7.70;71.40;;;;;;5006522;28;20037;-78
2020/12/31 08:27:11;;;;;;;3.92;3.63;;;7.70;71.40;;;;;;5006622;28;20408;-77
2020/12/31 08:29:38;;;;;;;3.58;3.17;;;7.80;71.50;;;;;;4994301;28;20121;-75
2020/12/31 08:32:09;;;;;;;3.72;3.42;;;7.70;71.40;;;;;;5008832;28;20117;-77
2020/12/31 08:34:37;;;;;;;4.07;3.67;;;7.80;71.40;;;;;;5008179;28;20612;-76
2020/12/31 08:37:04;;;;;;;4.55;3.72;;;7.80;71.40;;;;;;5000308;28;20040;-77
2020/12/31 08:39:30;;;;;;;3.90;3.60;;;7.70;71.30;;;;;;5008356;28;20026;-78
2020/12/31 08:42:00;;;;;;;4.65;4.18;;;7.80;71.40;;;;;;5008870;28;20081;-77
2020/12/31 08:44:26;;;;;;;4.30;3.90;;;7.80;71.40;;;;;;4992192;28;20042;-77
2020/12/31 08:46:52;;;;;;;3.85;3.33;;;7.70;71.30;;;;;;5008650;28;20108;-77
2020/12/31 08:49:26;;;;;;;4.80;4.30;;;7.80;71.40;;;;;;5008910;28;20121;-77
2020/12/31 08:51:52;;;;;;;4.32;3.92;;;7.80;71.50;;;;;;4993354;28;20434;-77
2020/12/31 08:54:18;;;;;;;4.57;4.18;;;7.80;71.50;;;;;;5008283;28;20037;-78
2020/12/31 08:56:44;;;;;;;4.47;4.05;;;7.70;71.50;;;;;;5008015;28;20445;-77
2020/12/31 08:59:17;;;;;;;4.60;4.07;;;7.80;71.50;;;;;;5003333;28;20126;-78
2020/12/31 09:01:46;;;;;;;3.85;3.50;;;7.80;71.50;;;;;;5007239;28;20030;-77
2020/12/31 09:04:19;;;;;;;4.50;4.10;;;7.80;71.50;;;;;;5008557;28;20032;-77
2020/12/31 09:06:57;;;;;;;4.57;4.18;;;7.80;71.50;;;;;;4998837;28;20403;-77
2020/12/31 09:09:28;;;;;;;4.13;3.72;;;7.90;71.60;;;;;;5005037;28;20579;-78
2020/12/31 09:12:01;;;;;;;4.50;4.10;;;7.90;72.10;;;;;;4993207;28;20056;-77
2020/12/31 09:14:27;;;;;;;4.50;4.10;;;7.90;71.60;;;;;;4997418;28;20090;-76
2020/12/31 09:16:53;;;;;;;3.83;3.38;;;7.90;71.60;;;;;;4993174;28;20052;-78
2020/12/31 09:19:19;;;;;;;4.50;4.10;;;7.90;71.60;;;;;;4995194;28;20482;-77
2020/12/31 09:21:46;;;;;;;4.30;3.90;;;7.90;71.70;;;;;;4997564;28;20081;-77
2020/12/31 09:24:16;;;;;;;4.20;3.72;;;7.90;71.60;;;;;;5006841;28;20058;-78
2020/12/31 09:26:58;;;;;;;3.85;3.55;;;8.00;71.60;;;;;;5005912;28;20479;-77
2020/12/31 09:29:25;;;;;;;4.43;3.95;;;8.00;71.60;;;;;;5001991;28;20038;-75
2020/12/31 09:31:54;;;;;;;4.43;4.03;;;8.10;71.80;;;;;;4991279;28;20042;-76
2020/12/31 09:34:21;;;;;;;4.32;3.92;;;8.00;71.70;;;;;;5005356;28;20092;-77
2020/12/31 09:36:46;;;;;;;4.57;4.07;;;8.10;71.80;;;;;;4997812;28;20395;-77
2020/12/31 09:39:12;;;;;;;4.35;3.95;;;8.10;71.70;;;;;;4998521;28;20084;-77
2020/12/31 09:41:38;;;;;;;4.55;4.15;;;8.10;71.70;;;;;;5006095;28;20479;-78
2020/12/31 09:44:04;;;;;;;4.43;4.03;;;8.10;71.60;;;;;;5007587;28;20491;-75
2020/12/31 09:46:30;;;;;;;4.50;4.10;;;8.10;71.60;;;;;;5007086;28;20076;-79
2020/12/31 09:48:56;;;;;;;4.18;3.78;;;8.20;71.60;;;;;;4993058;28;20387;-78
2020/12/31 09:51:22;;;;;;;4.07;3.67;;;8.20;71.50;;;;;;4999956;28;20037;-77
2020/12/31 09:53:51;;;;;;;4.63;4.20;;;8.20;71.50;;;;;;5006724;28;20156;-77
2020/12/31 09:56:20;;;;;;;4.15;3.75;;;8.20;72.00;;;;;;5008993;28;20475;-78
2020/12/31 09:58:45;;;;;;;4.68;3.97;;;8.20;71.50;;;;;;5008523;28;20534;-77
2020/12/31 10:01:11;;;;;;;3.63;3.33;;;8.20;71.50;;;;;;4994413;28;20033;-77
2020/12/31 10:03:37;;;;;;;3.50;3.17;;;8.30;71.60;;;;;;5005966;28;20030;-78
2020/12/31 10:06:06;;;;;;;4.97;4.25;;;8.20;71.50;;;;;;4997025;28;20034;-76
2020/12/31 10:08:31;;;;;;;3.25;2.95;;;8.30;71.50;;;;;;5006563;28;20026;-77
2020/12/31 10:10:57;;;;;;;4.57;3.35;;;8.20;71.50;;;;;;5008459;28;20382;-77
2020/12/31 10:13:22;;;;;;;3.33;3.03;;;8.20;71.40;;;;;;4994697;28;20034;-77
2020/12/31 10:15:48;;;;;;;3.75;3.30;;;8.30;71.50;;;;;;5009653;28;20030;-76
2020/12/31 10:18:13;;;;;;;3.40;3.10;;;8.30;71.50;;;;;;5010947;28;20026;-77
2020/12/31 10:20:39;;;;;;;3.60;3.30;;;8.30;71.50;;;;;;5002292;28;20030;-77
2020/12/31 10:23:04;;;;;;;3.75;3.35;;;8.40;71.60;;;;;;5009562;28;20029;-77
2020/12/31 10:25:30;;;;;;;3.95;3.55;;;8.30;71.50;;;;;;5008469;28;20102;-77
2020/12/31 10:27:56;;;;;;;4.07;3.67;;;8.30;71.40;;;;;;5006140;28;20026;-76
2020/12/31 10:30:21;;;;;;;3.60;3.30;;;8.30;71.40;;;;;;5003289;28;20152;-77
2020/12/31 10:32:47;;;;;;;3.88;3.47;;;8.30;71.50;;;;;;5005211;28;20566;-77
2020/12/31 10:35:12;;;;;;;3.67;3.20;;;8.50;71.60;;;;;;5000485;28;20047;-77
2020/12/31 10:37:38;;;;;;;4.20;3.78;;;8.30;71.50;;;;;;5002646;28;20029;-76
2020/12/31 10:40:04;;;;;;;3.50;3.20;;;8.40;71.60;;;;;;4998157;28;20035;-77
2020/12/31 10:42:30;;;;;;;4.13;3.72;;;8.30;71.50;;;;;;5001556;28;20041;-77
2020/12/31 10:44:55;;;;;;;4.20;3.80;;;8.40;71.50;;;;;;4995113;28;20038;-80
2020/12/31 10:47:21;;;;;;;4.30;3.90;;;8.40;71.50;;;;;;5008394;28;20030;-77
2020/12/31 10:49:46;;;;;;;5.00;4.47;;;8.40;71.30;;;;;;5007145;28;20175;-77
2020/12/31 10:52:12;;;;;;;4.93;4.32;;;8.40;71.30;;;;;;4998698;28;20454;-74
2020/12/31 10:54:37;;;;;;;5.90;4.50;;;8.40;71.20;;;;;;4988255;28;20052;-76
2020/12/31 10:57:03;;;;;;;4.50;4.03;;;8.40;71.70;;;;;;4985860;28;20034;-77
2020/12/31 10:59:29;;;;;;;5.30;4.38;;;8.40;71.10;;;;;;4983372;28;20086;-76
2020/12/31 11:01:54;;;;;;;4.43;3.95;;;8.40;71.10;;;;;;4991878;28;20574;-76
2020/12/31 11:04:20;;;;;;;4.25;3.85;;;8.40;71.10;;;;;;5004331;28;20088;-76
2020/12/31 11:06:46;;;;;;;4.63;4.18;;;8.40;71.10;;;;;;4988252;28;20049;-76
2020/12/31 11:09:12;;;;;;;4.20;3.80;;;8.40;71.00;;;;;;4987111;28;20503;-76
2020/12/31 11:11:39;;;;;;;3.58;3.20;;;8.40;71.00;;;;;;4983476;28;20111;-77
2020/12/31 11:14:06;;;;;;;4.10;3.65;;;8.30;71.00;;;;;;4987823;28;20058;-77
2020/12/31 11:16:32;;;;;;;4.20;3.83;;;8.40;71.20;;;;;;4985307;28;20034;-77
2020/12/31 11:18:57;;;;;;;3.42;3.13;;;8.40;71.20;;;;;;4992311;28;20513;-77
2020/12/31 11:21:23;;;;;;;4.18;3.78;;;8.30;71.20;;;;;;4992907;28;20046;-77
2020/12/31 11:23:48;;;;;;;3.92;3.42;;;8.50;71.40;;;;;;5007175;28;20042;-77
2020/12/31 11:26:19;;;;;;;3.75;3.40;;;8.40;71.30;;;;;;5008076;28;20169;-78
2020/12/31 11:28:48;;;;;;;4.15;3.75;;;8.40;71.30;;;;;;5006288;28;20396;-77
2020/12/31 11:31:15;;;;;;;4.25;3.35;;;8.40;71.90;;;;;;4997981;28;20146;-77
2020/12/31 11:33:42;;;;;;;4.32;3.67;;;8.40;71.30;;;;;;5004201;28;20104;-77
2020/12/31 11:36:08;;;;;;;3.90;3.50;;;8.40;71.30;;;;;;4997080;28;20422;-77
2020/12/31 11:38:34;;;;;;;3.72;3.05;;;8.40;71.20;;;;;;5005947;28;20029;-76
2020/12/31 11:41:00;;;;;;;3.38;3.03;;;8.40;71.20;;;;;;5004846;28;20056;-77
2020/12/31 11:43:26;;;;;;;3.17;2.55;;;8.50;71.10;;;;;;4994989;28;22129;-76
2020/12/31 11:45:52;;;;;;;3.50;2.72;;;8.50;71.00;;;;;;5005256;28;20026;-77
2020/12/31 11:48:18;;;;;;;3.20;2.70;;;8.50;71.00;;;;;;5005345;28;20108;-77
2020/12/31 11:50:44;;;;;;;3.20;2.78;;;8.50;71.00;;;;;;4995609;28;20100;-77
2020/12/31 11:53:10;;;;;;;2.78;2.55;;;8.50;71.00;;;;;;5005078;28;20054;-77
2020/12/31 11:55:35;;;;;;;3.42;2.78;;;8.50;71.00;;;;;;5005517;28;20100;-76
2020/12/31 11:58:01;;;;;;;3.90;2.83;;;8.50;71.00;;;;;;5004327;28;20037;-76
2020/12/31 12:00:26;;;;;;;3.42;2.72;;;8.50;71.00;;;;;;5001165;28;20149;-76
2020/12/31 12:02:52;;;;;;;2.88;2.40;;;8.70;71.10;;;;;;4994373;28;20029;-77
2020/12/31 12:05:17;;;;;;;3.55;2.90;;;8.50;71.00;;;;;;4998545;28;20041;-77
2020/12/31 12:07:45;;;;;;;4.18;3.15;;;8.50;71.00;;;;;;5003966;28;20031;-77
2020/12/31 12:10:11;;;;;;;3.38;2.45;;;8.50;70.90;;;;;;5001362;28;20692;-76
2020/12/31 12:12:37;;;;;;;3.65;2.85;;;8.50;70.80;;;;;;5017200;28;20053;-76
2020/12/31 12:15:03;;;;;;;3.22;2.40;;;8.50;70.80;;;;;;4996801;28;20039;-77
2020/12/31 12:17:29;;;;;;;2.17;1.85;;;8.50;70.80;;;;;;5002196;28;20672;-76
2020/12/31 12:19:54;;;;;;;2.65;2.10;;;8.50;70.80;;;;;;5007216;28;20113;-77
2020/12/31 12:22:20;;;;;;;2.92;1.98;;;8.50;70.80;;;;;;4999585;28;20037;-77
2020/12/31 12:24:45;;;;;;;3.35;2.45;;;8.50;70.80;;;;;;5004895;28;20045;-77
2020/12/31 12:27:11;;;;;;;2.53;2.33;;;8.50;70.90;;;;;;5008977;28;20125;-77
2020/12/31 12:29:36;;;;;;;3.20;2.90;;;8.50;70.90;;;;;;5004033;28;20117;-77
2020/12/31 12:32:02;;;;;;;3.47;3.03;;;8.60;71.10;;;;;;5008854;28;20106;-76
2020/12/31 12:34:28;;;;;;;3.63;3.13;;;8.60;71.10;;;;;;5006931;28;20040;-77
2020/12/31 12:36:53;;;;;;;2.72;2.45;;;8.60;71.20;;;;;;4993218;28;20486;-77
2020/12/31 12:39:19;;;;;;;3.28;2.95;;;8.60;71.20;;;;;;5004451;28;20034;-76
2020/12/31 12:41:45;;;;;;;3.78;2.80;;;8.60;71.20;;;;;;5004721;28;20026;-77
2020/12/31 12:44:11;;;;;;;3.85;3.05;;;8.60;71.20;;;;;;4988794;28;20395;-75
2020/12/31 12:46:37;;;;;;;4.20;3.50;;;8.70;71.20;;;;;;5003929;28;20042;-77
2020/12/31 12:49:03;;;;;;;2.95;2.65;;;8.70;71.20;;;;;;5003160;28;20029;-77
2020/12/31 12:51:32;;;;;;;3.13;2.72;;;8.70;71.20;;;;;;4994329;28;20030;-77
2020/12/31 12:53:58;;;;;;;3.42;2.75;;;8.70;71.70;;;;;;5003606;28;20112;-77
2020/12/31 12:56:23;;;;;;;3.17;2.67;;;8.70;71.20;;;;;;5003808;28;20428;-77
2020/12/31 12:58:49;;;;;;;3.50;2.88;;;8.80;71.20;;;;;;4989747;28;20499;-76
2020/12/31 13:01:14;;;;;;;3.55;2.45;;;8.70;71.10;;;;;;4986452;28;20033;-76